sensor_id;sensor_type;location;lat;lon;timestamp;P1;durP1;ratioP1;P2;durP2;ratioP2
54201;SDS011;40108;53.152;5.844;2022-08-21T00:01:18;13.35;;;6.75;;
54201;SDS011;40108;53.152;5.844;2022-08-21T00:03:46;13.00;;;6.65;;
54201;SDS011;40108;53.152;5.844;2022-08-21T00:06:12;15.70;;;7.35;;
54201;SDS011;40108;53.152;5.844;2022-08-21T00:08:38;11.73;;;7.88;;
54201;SDS011;40108;53.152;5.844;2022-08-21T00:11:04;15.13;;;8.00;;
54201;SDS011;40108;53.152;5.844;2022-08-21T00:13:30;14.00;;;7.45;;
54201;SDS011;40108;53.152;5.844;2022-08-21T00:15:57;17.95;;;8.10;;
54201;SDS011;40108;53.152;5.844;2022-08-21T00:18:23;17.85;;;7.88;;
54201;SDS011;40108;53.152;5.844;2022-08-21T00:20:50;14.65;;;7.88;;
54201;SDS011;40108;53.152;5.844;2022-08-21T00:23:15;15.60;;;7.90;;
54201;SDS011;40108;53.152;5.844;2022-08-21T00:25:42;14.13;;;7.60;;
54201;SDS011;40108;53.152;5.844;2022-08-21T00:28:09;14.98;;;7.90;;
54201;SDS011;40108;53.152;5.844;2022-08-21T00:30:35;13.70;;;7.88;;
54201;SDS011;40108;53.152;5.844;2022-08-21T00:33:01;16.95;;;8.27;;
54201;SDS011;40108;53.152;5.844;2022-08-21T00:35:28;14.00;;;7.53;;
54201;SDS011;40108;53.152;5.844;2022-08-21T00:37:57;16.83;;;8.02;;
54201;SDS011;40108;53.152;5.844;2022-08-21T00:40:25;13.38;;;8.20;;
54201;SDS011;40108;53.152;5.844;2022-08-21T00:42:55;19.70;;;7.88;;
54201;SDS011;40108;53.152;5.844;2022-08-21T00:45:22;17.67;;;7.40;;
54201;SDS011;40108;53.152;5.844;2022-08-21T00:47:49;14.25;;;7.75;;
54201;SDS011;40108;53.152;5.844;2022-08-21T00:50:16;16.50;;;8.48;;
54201;SDS011;40108;53.152;5.844;2022-08-21T00:52:43;16.17;;;8.55;;
54201;SDS011;40108;53.152;5.844;2022-08-21T00:55:10;18.02;;;8.60;;
54201;SDS011;40108;53.152;5.844;2022-08-21T00:57:42;17.98;;;9.25;;
54201;SDS011;40108;53.152;5.844;2022-08-21T01:00:13;15.38;;;8.95;;
54201;SDS011;40108;53.152;5.844;2022-08-21T01:02:42;20.98;;;9.13;;
54201;SDS011;40108;53.152;5.844;2022-08-21T01:05:08;16.05;;;9.18;;
54201;SDS011;40108;53.152;5.844;2022-08-21T01:07:35;22.73;;;10.23;;
54201;SDS011;40108;53.152;5.844;2022-08-21T01:10:01;14.95;;;9.75;;
54201;SDS011;40108;53.152;5.844;2022-08-21T01:12:28;15.50;;;9.60;;
54201;SDS011;40108;53.152;5.844;2022-08-21T01:14:54;17.58;;;9.95;;
54201;SDS011;40108;53.152;5.844;2022-08-21T01:17:19;22.33;;;10.50;;
54201;SDS011;40108;53.152;5.844;2022-08-21T01:19:46;14.98;;;9.57;;
54201;SDS011;40108;53.152;5.844;2022-08-21T01:22:12;16.80;;;10.07;;
54201;SDS011;40108;53.152;5.844;2022-08-21T01:24:38;17.85;;;10.05;;
54201;SDS011;40108;53.152;5.844;2022-08-21T01:27:03;18.42;;;10.23;;
54201;SDS011;40108;53.152;5.844;2022-08-21T01:32:17;14.75;;;9.68;;
54201;SDS011;40108;53.152;5.844;2022-08-21T01:34:45;16.35;;;9.85;;
54201;SDS011;40108;53.152;5.844;2022-08-21T01:37:13;14.05;;;9.77;;
54201;SDS011;40108;53.152;5.844;2022-08-21T01:39:39;12.95;;;9.13;;
54201;SDS011;40108;53.152;5.844;2022-08-21T01:42:07;15.25;;;9.85;;
54201;SDS011;40108;53.152;5.844;2022-08-21T01:44:33;17.30;;;10.25;;
54201;SDS011;40108;53.152;5.844;2022-08-21T01:47:00;14.95;;;9.52;;
54201;SDS011;40108;53.152;5.844;2022-08-21T01:49:29;14.18;;;10.20;;
54201;SDS011;40108;53.152;5.844;2022-08-21T01:51:54;13.98;;;10.00;;
54201;SDS011;40108;53.152;5.844;2022-08-21T01:54:21;19.25;;;10.82;;
54201;SDS011;40108;53.152;5.844;2022-08-21T01:56:47;15.60;;;10.63;;
54201;SDS011;40108;53.152;5.844;2022-08-21T01:59:15;17.90;;;9.73;;
54201;SDS011;40108;53.152;5.844;2022-08-21T02:01:41;14.73;;;10.18;;
54201;SDS011;40108;53.152;5.844;2022-08-21T02:04:08;20.40;;;10.75;;
54201;SDS011;40108;53.152;5.844;2022-08-21T02:06:34;16.85;;;10.82;;
54201;SDS011;40108;53.152;5.844;2022-08-21T02:09:02;16.27;;;10.15;;
54201;SDS011;40108;53.152;5.844;2022-08-21T02:11:29;15.68;;;9.65;;
54201;SDS011;40108;53.152;5.844;2022-08-21T02:13:55;16.20;;;9.85;;
54201;SDS011;40108;53.152;5.844;2022-08-21T02:16:20;15.50;;;9.85;;
54201;SDS011;40108;53.152;5.844;2022-08-21T02:18:46;14.68;;;9.52;;
54201;SDS011;40108;53.152;5.844;2022-08-21T02:21:12;18.05;;;9.95;;
54201;SDS011;40108;53.152;5.844;2022-08-21T02:23:37;16.48;;;9.23;;
54201;SDS011;40108;53.152;5.844;2022-08-21T02:26:05;15.43;;;9.52;;
54201;SDS011;40108;53.152;5.844;2022-08-21T02:28:32;16.63;;;9.65;;
54201;SDS011;40108;53.152;5.844;2022-08-21T02:30:58;15.15;;;9.82;;
54201;SDS011;40108;53.152;5.844;2022-08-21T02:33:24;15.32;;;9.00;;
54201;SDS011;40108;53.152;5.844;2022-08-21T02:35:51;15.45;;;8.82;;
54201;SDS011;40108;53.152;5.844;2022-08-21T02:38:19;19.33;;;9.10;;
54201;SDS011;40108;53.152;5.844;2022-08-21T02:40:48;17.85;;;10.15;;
54201;SDS011;40108;53.152;5.844;2022-08-21T02:43:15;19.50;;;8.95;;
54201;SDS011;40108;53.152;5.844;2022-08-21T02:45:42;14.05;;;8.48;;
54201;SDS011;40108;53.152;5.844;2022-08-21T02:48:10;11.88;;;8.65;;
54201;SDS011;40108;53.152;5.844;2022-08-21T02:50:39;13.48;;;8.80;;
54201;SDS011;40108;53.152;5.844;2022-08-21T02:55:38;13.82;;;8.00;;
54201;SDS011;40108;53.152;5.844;2022-08-21T02:58:05;15.60;;;8.60;;
54201;SDS011;40108;53.152;5.844;2022-08-21T03:00:33;14.57;;;8.13;;
54201;SDS011;40108;53.152;5.844;2022-08-21T03:02:59;12.88;;;7.30;;
54201;SDS011;40108;53.152;5.844;2022-08-21T03:05:26;13.85;;;8.23;;
54201;SDS011;40108;53.152;5.844;2022-08-21T03:07:53;18.48;;;8.38;;
54201;SDS011;40108;53.152;5.844;2022-08-21T03:10:20;15.07;;;8.05;;
54201;SDS011;40108;53.152;5.844;2022-08-21T03:12:46;16.00;;;8.45;;
54201;SDS011;40108;53.152;5.844;2022-08-21T03:15:15;15.77;;;8.68;;
54201;SDS011;40108;53.152;5.844;2022-08-21T03:17:42;14.93;;;7.95;;
54201;SDS011;40108;53.152;5.844;2022-08-21T03:20:09;14.82;;;7.70;;
54201;SDS011;40108;53.152;5.844;2022-08-21T03:22:36;16.52;;;8.77;;
54201;SDS011;40108;53.152;5.844;2022-08-21T03:25:02;18.58;;;8.70;;
54201;SDS011;40108;53.152;5.844;2022-08-21T03:27:28;15.73;;;7.75;;
54201;SDS011;40108;53.152;5.844;2022-08-21T03:29:56;16.60;;;8.27;;
54201;SDS011;40108;53.152;5.844;2022-08-21T03:32:22;20.50;;;7.75;;
54201;SDS011;40108;53.152;5.844;2022-08-21T03:34:48;15.40;;;9.15;;
54201;SDS011;40108;53.152;5.844;2022-08-21T03:37:14;15.13;;;8.85;;
54201;SDS011;40108;53.152;5.844;2022-08-21T03:39:40;16.33;;;8.65;;
54201;SDS011;40108;53.152;5.844;2022-08-21T03:42:07;18.75;;;7.93;;
54201;SDS011;40108;53.152;5.844;2022-08-21T03:44:33;19.58;;;9.13;;
54201;SDS011;40108;53.152;5.844;2022-08-21T03:46:59;12.93;;;8.57;;
54201;SDS011;40108;53.152;5.844;2022-08-21T03:49:25;18.60;;;8.25;;
54201;SDS011;40108;53.152;5.844;2022-08-21T03:51:51;17.73;;;9.43;;
54201;SDS011;40108;53.152;5.844;2022-08-21T03:54:17;17.73;;;9.00;;
54201;SDS011;40108;53.152;5.844;2022-08-21T03:56:43;19.58;;;8.95;;
54201;SDS011;40108;53.152;5.844;2022-08-21T03:59:08;20.17;;;9.27;;
54201;SDS011;40108;53.152;5.844;2022-08-21T04:01:35;14.77;;;8.65;;
54201;SDS011;40108;53.152;5.844;2022-08-21T04:04:01;14.40;;;8.45;;
54201;SDS011;40108;53.152;5.844;2022-08-21T04:06:28;15.38;;;8.55;;
54201;SDS011;40108;53.152;5.844;2022-08-21T04:08:54;12.60;;;8.35;;
54201;SDS011;40108;53.152;5.844;2022-08-21T04:11:20;19.80;;;8.38;;
54201;SDS011;40108;53.152;5.844;2022-08-21T04:13:45;17.00;;;9.20;;
54201;SDS011;40108;53.152;5.844;2022-08-21T04:16:12;15.68;;;9.02;;
54201;SDS011;40108;53.152;5.844;2022-08-21T04:18:38;21.40;;;9.48;;
54201;SDS011;40108;53.152;5.844;2022-08-21T04:21:04;16.33;;;8.50;;
54201;SDS011;40108;53.152;5.844;2022-08-21T04:23:31;16.10;;;9.25;;
54201;SDS011;40108;53.152;5.844;2022-08-21T04:25:57;22.70;;;9.07;;
54201;SDS011;40108;53.152;5.844;2022-08-21T04:28:25;16.45;;;9.27;;
54201;SDS011;40108;53.152;5.844;2022-08-21T04:30:52;15.13;;;9.65;;
54201;SDS011;40108;53.152;5.844;2022-08-21T04:33:19;23.20;;;8.90;;
54201;SDS011;40108;53.152;5.844;2022-08-21T04:35:46;15.10;;;9.50;;
54201;SDS011;40108;53.152;5.844;2022-08-21T04:38:12;16.13;;;9.15;;
54201;SDS011;40108;53.152;5.844;2022-08-21T04:40:37;16.05;;;9.57;;
54201;SDS011;40108;53.152;5.844;2022-08-21T04:43:05;19.30;;;10.68;;
54201;SDS011;40108;53.152;5.844;2022-08-21T04:45:37;16.17;;;9.90;;
54201;SDS011;40108;53.152;5.844;2022-08-21T04:48:06;17.10;;;9.35;;
54201;SDS011;40108;53.152;5.844;2022-08-21T04:50:36;17.63;;;9.50;;
54201;SDS011;40108;53.152;5.844;2022-08-21T04:53:24;24.38;;;10.00;;
54201;SDS011;40108;53.152;5.844;2022-08-21T04:56:11;22.77;;;10.52;;
54201;SDS011;40108;53.152;5.844;2022-08-21T04:58:44;14.55;;;9.60;;
54201;SDS011;40108;53.152;5.844;2022-08-21T05:01:12;18.85;;;10.90;;
54201;SDS011;40108;53.152;5.844;2022-08-21T05:03:40;15.38;;;9.95;;
54201;SDS011;40108;53.152;5.844;2022-08-21T05:06:08;17.83;;;10.57;;
54201;SDS011;40108;53.152;5.844;2022-08-21T05:08:35;23.35;;;10.52;;
54201;SDS011;40108;53.152;5.844;2022-08-21T05:11:03;16.60;;;10.23;;
54201;SDS011;40108;53.152;5.844;2022-08-21T05:13:29;16.95;;;10.20;;
54201;SDS011;40108;53.152;5.844;2022-08-21T05:15:56;15.45;;;10.38;;
54201;SDS011;40108;53.152;5.844;2022-08-21T05:18:21;17.48;;;10.25;;
54201;SDS011;40108;53.152;5.844;2022-08-21T05:20:47;19.27;;;9.65;;
54201;SDS011;40108;53.152;5.844;2022-08-21T05:23:13;15.07;;;10.02;;
54201;SDS011;40108;53.152;5.844;2022-08-21T05:25:40;25.67;;;10.55;;
54201;SDS011;40108;53.152;5.844;2022-08-21T05:28:06;15.10;;;8.95;;
54201;SDS011;40108;53.152;5.844;2022-08-21T05:30:32;18.88;;;9.80;;
54201;SDS011;40108;53.152;5.844;2022-08-21T05:33:00;18.27;;;9.95;;
54201;SDS011;40108;53.152;5.844;2022-08-21T05:35:27;22.25;;;9.60;;
54201;SDS011;40108;53.152;5.844;2022-08-21T05:37:54;17.85;;;9.93;;
54201;SDS011;40108;53.152;5.844;2022-08-21T05:40:21;20.42;;;9.75;;
54201;SDS011;40108;53.152;5.844;2022-08-21T05:42:47;17.70;;;10.13;;
54201;SDS011;40108;53.152;5.844;2022-08-21T05:45:13;19.00;;;9.75;;
54201;SDS011;40108;53.152;5.844;2022-08-21T05:47:39;19.67;;;8.98;;
54201;SDS011;40108;53.152;5.844;2022-08-21T05:50:05;18.08;;;9.18;;
54201;SDS011;40108;53.152;5.844;2022-08-21T05:52:31;19.83;;;8.70;;
54201;SDS011;40108;53.152;5.844;2022-08-21T05:54:56;17.38;;;8.63;;
54201;SDS011;40108;53.152;5.844;2022-08-21T05:57:22;19.58;;;9.30;;
54201;SDS011;40108;53.152;5.844;2022-08-21T05:59:50;18.85;;;8.32;;
54201;SDS011;40108;53.152;5.844;2022-08-21T06:02:19;20.00;;;8.80;;
54201;SDS011;40108;53.152;5.844;2022-08-21T06:04:46;15.93;;;8.90;;
54201;SDS011;40108;53.152;5.844;2022-08-21T06:07:13;18.38;;;8.85;;
54201;SDS011;40108;53.152;5.844;2022-08-21T06:09:39;17.52;;;9.88;;
54201;SDS011;40108;53.152;5.844;2022-08-21T06:12:05;15.80;;;8.40;;
54201;SDS011;40108;53.152;5.844;2022-08-21T06:14:35;17.65;;;8.73;;
54201;SDS011;40108;53.152;5.844;2022-08-21T06:17:12;16.63;;;8.10;;
54201;SDS011;40108;53.152;5.844;2022-08-21T06:19:39;16.60;;;7.37;;
54201;SDS011;40108;53.152;5.844;2022-08-21T06:22:05;15.98;;;7.75;;
54201;SDS011;40108;53.152;5.844;2022-08-21T06:24:31;13.70;;;7.68;;
54201;SDS011;40108;53.152;5.844;2022-08-21T06:26:57;15.30;;;8.45;;
54201;SDS011;40108;53.152;5.844;2022-08-21T06:29:23;13.05;;;7.55;;
54201;SDS011;40108;53.152;5.844;2022-08-21T06:31:50;14.52;;;8.35;;
54201;SDS011;40108;53.152;5.844;2022-08-21T06:34:17;13.85;;;7.68;;
54201;SDS011;40108;53.152;5.844;2022-08-21T06:36:43;16.65;;;8.05;;
54201;SDS011;40108;53.152;5.844;2022-08-21T06:39:09;13.55;;;7.13;;
54201;SDS011;40108;53.152;5.844;2022-08-21T06:41:35;13.20;;;6.82;;
54201;SDS011;40108;53.152;5.844;2022-08-21T06:44:01;16.30;;;6.78;;
54201;SDS011;40108;53.152;5.844;2022-08-21T06:46:28;13.80;;;6.57;;
54201;SDS011;40108;53.152;5.844;2022-08-21T06:48:55;13.77;;;5.53;;
54201;SDS011;40108;53.152;5.844;2022-08-21T06:51:21;13.23;;;6.40;;
54201;SDS011;40108;53.152;5.844;2022-08-21T06:53:48;14.32;;;6.00;;
54201;SDS011;40108;53.152;5.844;2022-08-21T06:56:14;15.82;;;6.35;;
54201;SDS011;40108;53.152;5.844;2022-08-21T06:58:40;12.80;;;5.65;;
54201;SDS011;40108;53.152;5.844;2022-08-21T07:01:06;10.95;;;5.55;;
54201;SDS011;40108;53.152;5.844;2022-08-21T07:03:36;18.35;;;5.65;;
54201;SDS011;40108;53.152;5.844;2022-08-21T07:06:04;11.90;;;5.15;;
54201;SDS011;40108;53.152;5.844;2022-08-21T07:08:31;11.95;;;5.30;;
54201;SDS011;40108;53.152;5.844;2022-08-21T07:10:57;14.20;;;4.88;;
54201;SDS011;40108;53.152;5.844;2022-08-21T07:13:25;15.60;;;5.45;;
54201;SDS011;40108;53.152;5.844;2022-08-21T07:15:51;12.55;;;4.82;;
54201;SDS011;40108;53.152;5.844;2022-08-21T07:18:17;10.85;;;4.38;;
54201;SDS011;40108;53.152;5.844;2022-08-21T07:20:43;14.57;;;5.82;;
54201;SDS011;40108;53.152;5.844;2022-08-21T07:23:19;12.65;;;5.13;;
54201;SDS011;40108;53.152;5.844;2022-08-21T07:25:48;12.50;;;4.90;;
54201;SDS011;40108;53.152;5.844;2022-08-21T07:28:14;13.23;;;4.78;;
54201;SDS011;40108;53.152;5.844;2022-08-21T07:30:40;14.63;;;4.57;;
54201;SDS011;40108;53.152;5.844;2022-08-21T07:33:05;12.90;;;4.60;;
54201;SDS011;40108;53.152;5.844;2022-08-21T07:35:32;14.80;;;4.70;;
54201;SDS011;40108;53.152;5.844;2022-08-21T07:37:58;15.05;;;3.47;;
54201;SDS011;40108;53.152;5.844;2022-08-21T07:40:24;10.25;;;2.92;;
54201;SDS011;40108;53.152;5.844;2022-08-21T07:42:50;13.32;;;3.30;;
54201;SDS011;40108;53.152;5.844;2022-08-21T07:45:17;14.15;;;2.65;;
54201;SDS011;40108;53.152;5.844;2022-08-21T07:47:45;15.15;;;3.45;;
54201;SDS011;40108;53.152;5.844;2022-08-21T07:50:11;16.88;;;2.67;;
54201;SDS011;40108;53.152;5.844;2022-08-21T07:52:38;10.70;;;2.72;;
54201;SDS011;40108;53.152;5.844;2022-08-21T07:55:05;13.02;;;3.53;;
54201;SDS011;40108;53.152;5.844;2022-08-21T07:57:31;15.07;;;3.15;;
54201;SDS011;40108;53.152;5.844;2022-08-21T07:59:57;14.43;;;3.33;;
54201;SDS011;40108;53.152;5.844;2022-08-21T08:02:29;9.73;;;2.90;;
54201;SDS011;40108;53.152;5.844;2022-08-21T08:04:58;20.08;;;3.42;;
54201;SDS011;40108;53.152;5.844;2022-08-21T08:07:26;15.82;;;2.53;;
54201;SDS011;40108;53.152;5.844;2022-08-21T08:09:52;13.48;;;2.78;;
54201;SDS011;40108;53.152;5.844;2022-08-21T08:12:18;19.90;;;3.10;;
54201;SDS011;40108;53.152;5.844;2022-08-21T08:14:45;11.45;;;2.25;;
54201;SDS011;40108;53.152;5.844;2022-08-21T08:17:11;13.43;;;2.63;;
54201;SDS011;40108;53.152;5.844;2022-08-21T08:19:38;10.00;;;2.67;;
54201;SDS011;40108;53.152;5.844;2022-08-21T08:22:12;12.15;;;2.30;;
54201;SDS011;40108;53.152;5.844;2022-08-21T08:24:39;11.95;;;2.45;;
54201;SDS011;40108;53.152;5.844;2022-08-21T08:27:05;19.42;;;3.00;;
54201;SDS011;40108;53.152;5.844;2022-08-21T08:29:30;11.27;;;2.53;;
54201;SDS011;40108;53.152;5.844;2022-08-21T08:31:56;11.60;;;2.40;;
54201;SDS011;40108;53.152;5.844;2022-08-21T08:34:23;10.82;;;2.45;;
54201;SDS011;40108;53.152;5.844;2022-08-21T08:36:48;16.42;;;2.75;;
54201;SDS011;40108;53.152;5.844;2022-08-21T08:39:14;10.57;;;2.50;;
54201;SDS011;40108;53.152;5.844;2022-08-21T08:41:40;13.07;;;2.38;;
54201;SDS011;40108;53.152;5.844;2022-08-21T08:44:08;10.73;;;2.50;;
54201;SDS011;40108;53.152;5.844;2022-08-21T08:46:41;16.30;;;3.03;;
54201;SDS011;40108;53.152;5.844;2022-08-21T08:49:18;8.32;;;2.33;;
54201;SDS011;40108;53.152;5.844;2022-08-21T08:51:54;9.38;;;2.50;;
54201;SDS011;40108;53.152;5.844;2022-08-21T08:54:25;15.38;;;3.72;;
54201;SDS011;40108;53.152;5.844;2022-08-21T08:57:15;12.52;;;2.47;;
54201;SDS011;40108;53.152;5.844;2022-08-21T08:59:43;13.70;;;2.78;;
54201;SDS011;40108;53.152;5.844;2022-08-21T09:02:12;10.77;;;2.58;;
54201;SDS011;40108;53.152;5.844;2022-08-21T09:04:40;9.73;;;2.17;;
54201;SDS011;40108;53.152;5.844;2022-08-21T09:10:04;12.95;;;2.70;;
54201;SDS011;40108;53.152;5.844;2022-08-21T09:12:38;13.88;;;2.65;;
54201;SDS011;40108;53.152;5.844;2022-08-21T09:17:54;12.25;;;2.67;;
54201;SDS011;40108;53.152;5.844;2022-08-21T09:20:37;13.70;;;2.73;;
54201;SDS011;40108;53.152;5.844;2022-08-21T09:28:34;10.55;;;2.88;;
54201;SDS011;40108;53.152;5.844;2022-08-21T09:31:01;12.20;;;2.92;;
54201;SDS011;40108;53.152;5.844;2022-08-21T09:33:31;9.07;;;2.30;;
54201;SDS011;40108;53.152;5.844;2022-08-21T09:35:58;10.20;;;2.17;;
54201;SDS011;40108;53.152;5.844;2022-08-21T09:38:28;10.05;;;2.63;;
54201;SDS011;40108;53.152;5.844;2022-08-21T09:41:03;10.18;;;2.20;;
54201;SDS011;40108;53.152;5.844;2022-08-21T09:43:31;14.10;;;2.45;;
54201;SDS011;40108;53.152;5.844;2022-08-21T09:48:43;12.88;;;2.42;;
54201;SDS011;40108;53.152;5.844;2022-08-21T09:51:17;13.30;;;2.60;;
54201;SDS011;40108;53.152;5.844;2022-08-21T09:54:30;9.07;;;2.05;;
54201;SDS011;40108;53.152;5.844;2022-08-21T09:56:50;9.57;;;2.15;;
54201;SDS011;40108;53.152;5.844;2022-08-21T09:59:38;9.25;;;2.03;;
54201;SDS011;40108;53.152;5.844;2022-08-21T10:04:57;8.43;;;1.88;;
54201;SDS011;40108;53.152;5.844;2022-08-21T10:07:43;5.20;;;1.50;;
54201;SDS011;40108;53.152;5.844;2022-08-21T10:10:19;8.10;;;2.28;;
54201;SDS011;40108;53.152;5.844;2022-08-21T10:12:55;7.80;;;1.67;;
54201;SDS011;40108;53.152;5.844;2022-08-21T10:18:25;8.27;;;1.73;;
54201;SDS011;40108;53.152;5.844;2022-08-21T10:26:05;7.82;;;1.48;;
54201;SDS011;40108;53.152;5.844;2022-08-21T10:28:35;5.00;;;1.60;;
54201;SDS011;40108;53.152;5.844;2022-08-21T10:31:14;9.95;;;1.80;;
54201;SDS011;40108;53.152;5.844;2022-08-21T10:39:33;7.47;;;1.38;;
54201;SDS011;40108;53.152;5.844;2022-08-21T10:42:12;8.23;;;1.60;;
54201;SDS011;40108;53.152;5.844;2022-08-21T10:47:28;9.60;;;1.95;;
54201;SDS011;40108;53.152;5.844;2022-08-21T10:53:15;6.72;;;1.30;;
54201;SDS011;40108;53.152;5.844;2022-08-21T10:58:39;6.10;;;1.48;;
54201;SDS011;40108;53.152;5.844;2022-08-21T11:01:24;8.18;;;1.80;;
54201;SDS011;40108;53.152;5.844;2022-08-21T11:06:52;8.52;;;1.38;;
54201;SDS011;40108;53.152;5.844;2022-08-21T11:09:24;9.52;;;1.80;;
54201;SDS011;40108;53.152;5.844;2022-08-21T11:17:07;7.43;;;1.52;;
54201;SDS011;40108;53.152;5.844;2022-08-21T11:22:31;5.15;;;1.77;;
54201;SDS011;40108;53.152;5.844;2022-08-21T11:25:02;7.43;;;1.60;;
54201;SDS011;40108;53.152;5.844;2022-08-21T11:27:36;7.78;;;1.40;;
54201;SDS011;40108;53.152;5.844;2022-08-21T11:30:14;8.70;;;1.63;;
54201;SDS011;40108;53.152;5.844;2022-08-21T11:43:43;8.88;;;2.10;;
54201;SDS011;40108;53.152;5.844;2022-08-21T11:46:24;7.38;;;1.80;;
54201;SDS011;40108;53.152;5.844;2022-08-21T11:51:48;5.13;;;1.45;;
54201;SDS011;40108;53.152;5.844;2022-08-21T11:54:28;8.68;;;1.75;;
54201;SDS011;40108;53.152;5.844;2022-08-21T11:57:04;6.78;;;1.40;;
54201;SDS011;40108;53.152;5.844;2022-08-21T11:59:43;6.38;;;1.90;;
54201;SDS011;40108;53.152;5.844;2022-08-21T12:02:35;4.57;;;1.25;;
54201;SDS011;40108;53.152;5.844;2022-08-21T12:05:05;5.32;;;1.58;;
54201;SDS011;40108;53.152;5.844;2022-08-21T12:07:40;5.82;;;1.38;;
54201;SDS011;40108;53.152;5.844;2022-08-21T12:10:10;6.95;;;1.80;;
54201;SDS011;40108;53.152;5.844;2022-08-21T12:12:46;7.85;;;1.73;;
54201;SDS011;40108;53.152;5.844;2022-08-21T12:17:56;4.68;;;1.60;;
54201;SDS011;40108;53.152;5.844;2022-08-21T12:20:38;6.70;;;1.65;;
54201;SDS011;40108;53.152;5.844;2022-08-21T12:25:39;6.13;;;1.40;;
54201;SDS011;40108;53.152;5.844;2022-08-21T12:28:08;5.22;;;1.42;;
54201;SDS011;40108;53.152;5.844;2022-08-21T12:30:38;5.93;;;1.20;;
54201;SDS011;40108;53.152;5.844;2022-08-21T12:33:17;5.97;;;1.50;;
54201;SDS011;40108;53.152;5.844;2022-08-21T12:35:51;7.22;;;1.58;;
54201;SDS011;40108;53.152;5.844;2022-08-21T12:38:26;5.13;;;1.30;;
54201;SDS011;40108;53.152;5.844;2022-08-21T12:40:59;8.23;;;1.40;;
54201;SDS011;40108;53.152;5.844;2022-08-21T12:43:28;7.53;;;1.52;;
54201;SDS011;40108;53.152;5.844;2022-08-21T12:45:54;3.88;;;1.20;;
54201;SDS011;40108;53.152;5.844;2022-08-21T12:48:28;3.58;;;1.00;;
54201;SDS011;40108;53.152;5.844;2022-08-21T12:51:17;6.22;;;1.40;;
54201;SDS011;40108;53.152;5.844;2022-08-21T12:53:54;5.07;;;1.25;;
54201;SDS011;40108;53.152;5.844;2022-08-21T12:56:25;6.07;;;1.48;;
54201;SDS011;40108;53.152;5.844;2022-08-21T12:58:55;6.70;;;1.55;;
54201;SDS011;40108;53.152;5.844;2022-08-21T13:01:23;8.52;;;1.58;;
54201;SDS011;40108;53.152;5.844;2022-08-21T13:03:52;4.55;;;1.27;;
54201;SDS011;40108;53.152;5.844;2022-08-21T13:06:22;5.18;;;1.40;;
54201;SDS011;40108;53.152;5.844;2022-08-21T13:08:53;9.07;;;1.58;;
54201;SDS011;40108;53.152;5.844;2022-08-21T13:11:22;5.53;;;1.45;;
54201;SDS011;40108;53.152;5.844;2022-08-21T13:13:49;5.22;;;1.15;;
54201;SDS011;40108;53.152;5.844;2022-08-21T13:16:23;6.32;;;1.10;;
54201;SDS011;40108;53.152;5.844;2022-08-21T13:18:59;7.55;;;1.73;;
54201;SDS011;40108;53.152;5.844;2022-08-21T13:21:28;4.55;;;1.50;;
54201;SDS011;40108;53.152;5.844;2022-08-21T13:24:15;6.15;;;1.33;;
54201;SDS011;40108;53.152;5.844;2022-08-21T13:26:41;7.97;;;1.50;;
54201;SDS011;40108;53.152;5.844;2022-08-21T13:29:14;8.05;;;1.50;;
54201;SDS011;40108;53.152;5.844;2022-08-21T13:31:46;5.85;;;1.17;;
54201;SDS011;40108;53.152;5.844;2022-08-21T13:34:20;6.85;;;1.50;;
54201;SDS011;40108;53.152;5.844;2022-08-21T13:36:49;9.73;;;1.85;;
54201;SDS011;40108;53.152;5.844;2022-08-21T13:39:17;6.57;;;1.48;;
54201;SDS011;40108;53.152;5.844;2022-08-21T13:41:45;8.70;;;1.40;;
54201;SDS011;40108;53.152;5.844;2022-08-21T13:46:59;8.27;;;1.60;;
54201;SDS011;40108;53.152;5.844;2022-08-21T13:49:29;9.45;;;2.03;;
54201;SDS011;40108;53.152;5.844;2022-08-21T13:51:57;6.43;;;1.33;;
54201;SDS011;40108;53.152;5.844;2022-08-21T13:54:42;7.38;;;1.40;;
54201;SDS011;40108;53.152;5.844;2022-08-21T13:57:18;6.85;;;1.33;;
54201;SDS011;40108;53.152;5.844;2022-08-21T13:59:49;7.18;;;1.27;;
54201;SDS011;40108;53.152;5.844;2022-08-21T14:02:16;10.65;;;1.65;;
54201;SDS011;40108;53.152;5.844;2022-08-21T14:04:58;6.07;;;1.65;;
54201;SDS011;40108;53.152;5.844;2022-08-21T14:10:05;6.45;;;1.58;;
54201;SDS011;40108;53.152;5.844;2022-08-21T14:12:33;7.40;;;1.80;;
54201;SDS011;40108;53.152;5.844;2022-08-21T14:15:29;5.22;;;1.52;;
54201;SDS011;40108;53.152;5.844;2022-08-21T14:20:42;7.72;;;1.60;;
54201;SDS011;40108;53.152;5.844;2022-08-21T14:23:09;7.25;;;1.52;;
54201;SDS011;40108;53.152;5.844;2022-08-21T14:25:40;7.97;;;1.20;;
54201;SDS011;40108;53.152;5.844;2022-08-21T14:30:40;7.82;;;1.70;;
54201;SDS011;40108;53.152;5.844;2022-08-21T14:33:09;6.28;;;1.50;;
54201;SDS011;40108;53.152;5.844;2022-08-21T14:35:37;8.15;;;1.80;;
54201;SDS011;40108;53.152;5.844;2022-08-21T14:38:10;7.75;;;1.95;;
54201;SDS011;40108;53.152;5.844;2022-08-21T14:40:43;9.68;;;1.50;;
54201;SDS011;40108;53.152;5.844;2022-08-21T14:43:12;11.57;;;2.67;;
54201;SDS011;40108;53.152;5.844;2022-08-21T14:45:38;10.82;;;1.92;;
54201;SDS011;40108;53.152;5.844;2022-08-21T14:48:06;10.02;;;1.70;;
54201;SDS011;40108;53.152;5.844;2022-08-21T14:50:33;7.15;;;1.65;;
54201;SDS011;40108;53.152;5.844;2022-08-21T14:52:58;9.25;;;1.83;;
54201;SDS011;40108;53.152;5.844;2022-08-21T14:55:25;9.23;;;2.30;;
54201;SDS011;40108;53.152;5.844;2022-08-21T14:57:52;9.50;;;1.80;;
54201;SDS011;40108;53.152;5.844;2022-08-21T15:00:21;10.73;;;1.80;;
54201;SDS011;40108;53.152;5.844;2022-08-21T15:02:50;10.73;;;1.52;;
54201;SDS011;40108;53.152;5.844;2022-08-21T15:05:17;10.68;;;2.08;;
54201;SDS011;40108;53.152;5.844;2022-08-21T15:07:43;9.00;;;2.22;;
54201;SDS011;40108;53.152;5.844;2022-08-21T15:10:10;10.07;;;2.13;;
54201;SDS011;40108;53.152;5.844;2022-08-21T15:12:36;9.70;;;1.92;;
54201;SDS011;40108;53.152;5.844;2022-08-21T15:15:04;9.07;;;1.67;;
54201;SDS011;40108;53.152;5.844;2022-08-21T15:17:32;10.90;;;2.03;;
54201;SDS011;40108;53.152;5.844;2022-08-21T15:19:57;7.95;;;1.77;;
54201;SDS011;40108;53.152;5.844;2022-08-21T15:22:23;10.13;;;2.10;;
54201;SDS011;40108;53.152;5.844;2022-08-21T15:24:49;10.55;;;1.90;;
54201;SDS011;40108;53.152;5.844;2022-08-21T15:27:15;8.82;;;1.85;;
54201;SDS011;40108;53.152;5.844;2022-08-21T15:29:43;8.95;;;2.08;;
54201;SDS011;40108;53.152;5.844;2022-08-21T15:34:52;10.55;;;1.52;;
54201;SDS011;40108;53.152;5.844;2022-08-21T15:37:18;12.25;;;1.90;;
54201;SDS011;40108;53.152;5.844;2022-08-21T15:39:45;8.15;;;2.38;;
54201;SDS011;40108;53.152;5.844;2022-08-21T15:42:11;7.35;;;1.70;;
54201;SDS011;40108;53.152;5.844;2022-08-21T15:44:38;7.13;;;1.73;;
54201;SDS011;40108;53.152;5.844;2022-08-21T15:47:04;10.20;;;1.80;;
54201;SDS011;40108;53.152;5.844;2022-08-21T15:49:31;7.25;;;1.63;;
54201;SDS011;40108;53.152;5.844;2022-08-21T15:51:57;8.40;;;1.88;;
54201;SDS011;40108;53.152;5.844;2022-08-21T15:54:23;6.07;;;1.45;;
54201;SDS011;40108;53.152;5.844;2022-08-21T15:56:49;6.53;;;1.85;;
54201;SDS011;40108;53.152;5.844;2022-08-21T15:59:17;6.60;;;1.70;;
54201;SDS011;40108;53.152;5.844;2022-08-21T16:01:47;8.95;;;1.80;;
54201;SDS011;40108;53.152;5.844;2022-08-21T16:04:34;8.88;;;1.70;;
54201;SDS011;40108;53.152;5.844;2022-08-21T16:07:00;6.20;;;1.70;;
54201;SDS011;40108;53.152;5.844;2022-08-21T16:09:26;5.25;;;1.88;;
54201;SDS011;40108;53.152;5.844;2022-08-21T16:11:51;7.85;;;1.90;;
54201;SDS011;40108;53.152;5.844;2022-08-21T16:14:18;8.05;;;1.83;;
54201;SDS011;40108;53.152;5.844;2022-08-21T16:16:44;8.77;;;1.50;;